createdAt,value
2019-03-25T00:00:04.668Z,1012.18
2019-03-25T00:01:04.628Z,1012.13
2019-03-25T00:02:04.610Z,1012.15
2019-03-25T00:03:04.612Z,1012.16
2019-03-25T00:04:04.591Z,1012.11
2019-03-25T00:05:04.661Z,1012.10
2019-03-25T00:06:04.575Z,1012.09
2019-03-25T00:07:04.561Z,1012.04
2019-03-25T00:08:04.549Z,1012.07
2019-03-25T00:09:05.632Z,1012.07
2019-03-25T00:10:04.546Z,1012.00
2019-03-25T00:11:04.506Z,1012.01
2019-03-25T00:12:04.495Z,1011.99
2019-03-25T00:13:04.483Z,1011.97
2019-03-25T00:14:04.493Z,1011.99
2019-03-25T00:15:04.467Z,1011.96
2019-03-25T00:16:04.473Z,1011.98
2019-03-25T00:17:04.440Z,1011.97
2019-03-25T00:18:04.495Z,1011.98
2019-03-25T00:19:04.525Z,1011.94
2019-03-25T00:20:04.414Z,1011.91
2019-03-25T00:21:04.471Z,1011.92
2019-03-25T00:22:04.386Z,1011.90
2019-03-25T00:23:04.374Z,1011.86
2019-03-25T00:24:04.368Z,1011.87
2019-03-25T00:25:04.355Z,1011.85
2019-03-25T00:26:04.368Z,1011.88
2019-03-25T00:27:04.342Z,1011.87
2019-03-25T00:28:04.331Z,1011.83
2019-03-25T00:29:04.317Z,1011.79
2019-03-25T00:30:04.309Z,1011.81
2019-03-25T00:31:04.317Z,1011.81
2019-03-25T00:32:04.286Z,1011.82
2019-03-25T00:33:04.274Z,1011.77
2019-03-25T00:34:04.258Z,1011.80
2019-03-25T00:35:04.258Z,1011.74
2019-03-25T00:36:04.236Z,1011.82
2019-03-25T00:37:04.249Z,1011.77
2019-03-25T00:38:04.221Z,1011.79
2019-03-25T00:39:04.211Z,1011.78
2019-03-25T00:40:04.205Z,1011.75
2019-03-25T00:41:04.189Z,1011.74
2019-03-25T00:42:04.199Z,1011.77
2019-03-25T00:43:04.159Z,1011.72
2019-03-25T00:44:04.154Z,1011.73
2019-03-25T00:45:04.138Z,1011.72
2019-03-25T00:46:04.138Z,1011.75
2019-03-25T00:47:04.131Z,1011.69
2019-03-25T00:48:04.124Z,1011.66
2019-03-25T00:49:04.094Z,1011.63
2019-03-25T00:50:04.092Z,1011.62
2019-03-25T00:51:04.104Z,1011.56
2019-03-25T00:52:04.066Z,1011.53
2019-03-25T00:53:04.076Z,1011.47
2019-03-25T00:54:04.051Z,1011.45
2019-03-25T00:55:04.031Z,1011.41
2019-03-25T00:56:04.019Z,1011.38
2019-03-25T00:57:04.007Z,1011.39
2019-03-25T00:58:04.033Z,1011.28
2019-03-25T00:59:03.995Z,1011.27
2019-03-25T01:00:03.985Z,1011.27
2019-03-25T01:01:03.983Z,1011.25
2019-03-25T01:02:03.955Z,1011.37
2019-03-25T01:03:03.945Z,1011.25
2019-03-25T01:04:03.959Z,1011.19
2019-03-25T01:05:03.928Z,1011.17
2019-03-25T01:06:03.920Z,1011.15
2019-03-25T01:07:03.901Z,1011.09
2019-03-25T01:08:03.890Z,1011.01
2019-03-25T01:09:03.910Z,1010.97
2019-03-25T01:10:03.875Z,1010.96
2019-03-25T01:11:03.863Z,1010.91
2019-03-25T01:12:03.858Z,1010.89
2019-03-25T01:13:03.844Z,1010.85
2019-03-25T01:14:03.824Z,1010.84
2019-03-25T01:15:03.846Z,1010.86
2019-03-25T01:16:03.803Z,1010.83
2019-03-25T01:17:03.791Z,1010.88
2019-03-25T01:18:03.790Z,1010.87
2019-03-25T01:19:03.779Z,1010.86
2019-03-25T01:20:03.759Z,1010.84
2019-03-25T01:21:03.779Z,1010.78
2019-03-25T01:22:03.743Z,1010.72
2019-03-25T01:23:03.762Z,1010.76
2019-03-25T01:24:03.730Z,1010.73
2019-03-25T01:25:03.711Z,1010.73
2019-03-25T01:26:03.714Z,1010.70
2019-03-25T01:27:03.683Z,1010.61
2019-03-25T01:28:03.742Z,1010.60
2019-03-25T01:29:03.667Z,1010.56
2019-03-25T01:30:03.661Z,1010.55
2019-03-25T01:31:03.673Z,1010.56
2019-03-25T01:32:03.638Z,1010.57
2019-03-25T01:33:03.624Z,1010.53
2019-03-25T01:34:03.630Z,1010.52
2019-03-25T01:35:03.599Z,1010.51
2019-03-25T01:36:03.599Z,1010.53
2019-03-25T01:37:03.605Z,1010.51
2019-03-25T01:38:03.566Z,1010.50
2019-03-25T01:39:03.556Z,1010.47
2019-03-25T01:40:03.551Z,1010.44
2019-03-25T01:41:03.556Z,1010.39
2019-03-25T01:42:03.531Z,1010.41
2019-03-25T01:43:03.548Z,1010.42
2019-03-25T01:44:03.508Z,1010.39
2019-03-25T01:45:03.498Z,1010.44
2019-03-25T01:46:03.477Z,1010.36
2019-03-25T01:47:03.467Z,1010.36
2019-03-25T01:48:03.481Z,1010.33
2019-03-25T01:49:03.448Z,1010.25
2019-03-25T01:50:03.811Z,1010.23
2019-03-25T01:51:03.643Z,1010.23
2019-03-25T01:52:03.413Z,1010.22
2019-03-25T01:53:03.424Z,1010.23
2019-03-25T01:54:03.403Z,1010.17
2019-03-25T01:55:13.057Z,1010.19
2019-03-25T01:56:04.392Z,1010.15
2019-03-25T01:57:03.386Z,1010.17
2019-03-25T01:58:03.351Z,1010.14
2019-03-25T01:59:03.341Z,1010.08
2019-03-25T02:00:03.352Z,1010.10
2019-03-25T02:01:03.317Z,1010.07
2019-03-25T02:02:03.315Z,1010.07
2019-03-25T02:03:03.310Z,1010.05
2019-03-25T02:04:03.291Z,1010.03
2019-03-25T02:05:03.298Z,1010.00
2019-03-25T02:06:03.268Z,1009.93
2019-03-25T02:07:03.256Z,1009.95
2019-03-25T02:08:03.248Z,1009.97
2019-03-25T02:09:03.262Z,1009.93
2019-03-25T02:10:03.219Z,1009.95
2019-03-25T02:11:03.207Z,1009.97
2019-03-25T02:12:03.205Z,1009.89
2019-03-25T02:13:03.188Z,1009.92
2019-03-25T02:14:03.201Z,1009.87
2019-03-25T02:15:03.171Z,1009.90
2019-03-25T02:16:03.239Z,1009.85
2019-03-25T02:17:03.214Z,1009.88
2019-03-25T02:18:03.144Z,1009.82
2019-03-25T02:19:03.131Z,1009.81
2019-03-25T02:20:03.112Z,1009.76
2019-03-25T02:21:03.120Z,1009.74
2019-03-25T02:22:03.117Z,1009.73
2019-03-25T02:23:03.366Z,1009.73
2019-03-25T02:24:03.068Z,1009.69
2019-03-25T02:25:03.066Z,1009.73
2019-03-25T02:26:03.052Z,1009.67
2019-03-25T02:27:03.067Z,1009.68
2019-03-25T02:28:03.029Z,1009.64
2019-03-25T02:29:03.022Z,1009.61
2019-03-25T02:30:03.011Z,1009.57
2019-03-25T02:31:02.992Z,1009.66
2019-03-25T02:32:02.981Z,1009.59
2019-03-25T02:33:02.999Z,1009.59
2019-03-25T02:34:02.967Z,1009.57
2019-03-25T02:35:02.957Z,1009.53
2019-03-25T02:36:02.948Z,1009.52
2019-03-25T02:37:02.933Z,1009.48
2019-03-25T02:38:03.033Z,1009.51
2019-03-25T02:39:02.913Z,1009.50
2019-03-25T02:40:02.899Z,1009.45
2019-03-25T02:41:02.912Z,1009.49
2019-03-25T02:42:02.876Z,1009.44
2019-03-25T02:43:02.859Z,1009.40
2019-03-25T02:44:02.915Z,1009.39
2019-03-25T02:45:02.883Z,1009.39
2019-03-25T02:46:02.834Z,1009.39
2019-03-25T02:47:02.830Z,1009.39
2019-03-25T02:48:02.812Z,1009.42
2019-03-25T02:49:02.843Z,1009.35
2019-03-25T02:50:02.783Z,1009.37
2019-03-25T02:51:02.773Z,1009.29
2019-03-25T02:52:03.139Z,1009.28
2019-03-25T02:53:02.767Z,1009.30
2019-03-25T02:54:02.747Z,1009.30
2019-03-25T02:55:02.771Z,1009.23
2019-03-25T02:56:02.720Z,1009.18
2019-03-25T02:57:02.711Z,1009.18
2019-03-25T02:58:02.711Z,1009.19
2019-03-25T02:59:02.722Z,1009.14
2019-03-25T03:00:02.711Z,1009.10
2019-03-25T03:01:02.738Z,1009.04
2019-03-25T03:02:02.651Z,1009.04
2019-03-25T03:03:02.649Z,1009.06
2019-03-25T03:04:02.629Z,1009.07
2019-03-25T03:05:02.631Z,1009.04
2019-03-25T03:06:02.642Z,1009.02
2019-03-25T03:07:02.604Z,1009.01
2019-03-25T03:08:02.593Z,1008.94
2019-03-25T03:09:02.582Z,1008.89
2019-03-25T03:10:02.568Z,1008.89
2019-03-25T03:11:02.590Z,1008.88
2019-03-25T03:12:02.570Z,1008.83
2019-03-25T03:13:02.539Z,1008.87
2019-03-25T03:14:02.540Z,1008.86
2019-03-25T03:15:02.510Z,1008.86
2019-03-25T03:16:02.507Z,1008.89
2019-03-25T03:17:02.514Z,1008.91
2019-03-25T03:18:02.483Z,1008.87
2019-03-25T03:19:02.469Z,1008.85
2019-03-25T03:20:02.456Z,1008.86
2019-03-25T03:21:02.447Z,1008.82
2019-03-25T03:22:02.456Z,1008.81
2019-03-25T03:23:02.426Z,1008.77
2019-03-25T03:24:02.417Z,1008.72
2019-03-25T03:25:02.405Z,1008.70
2019-03-25T03:26:02.390Z,1008.71
2019-03-25T03:27:02.406Z,1008.71
2019-03-25T03:28:02.371Z,1008.76
2019-03-25T03:29:02.362Z,1008.73
2019-03-25T03:30:02.525Z,1008.66
2019-03-25T03:31:02.352Z,1008.63
2019-03-25T03:32:02.371Z,1008.59
2019-03-25T03:33:02.321Z,1008.58
2019-03-25T03:34:02.339Z,1008.49
2019-03-25T03:35:02.424Z,1008.52
2019-03-25T03:36:02.299Z,1008.49
2019-03-25T03:37:02.293Z,1008.47
2019-03-25T03:38:02.288Z,1008.45
2019-03-25T03:39:02.257Z,1008.44
2019-03-25T03:40:02.248Z,1008.47
2019-03-25T03:41:02.249Z,1008.38
2019-03-25T03:42:02.223Z,1008.42
2019-03-25T03:43:02.230Z,1008.43
2019-03-25T03:44:02.220Z,1008.38
2019-03-25T03:45:02.180Z,1008.35
2019-03-25T03:46:02.179Z,1008.33
2019-03-25T03:47:02.166Z,1008.31
2019-03-25T03:48:02.159Z,1008.34
2019-03-25T03:49:02.167Z,1008.33
2019-03-25T03:50:02.134Z,1008.33
2019-03-25T03:51:02.116Z,1008.33
2019-03-25T03:52:02.110Z,1008.31
2019-03-25T03:53:02.098Z,1008.30
2019-03-25T03:54:02.112Z,1008.28
2019-03-25T03:55:02.078Z,1008.22
2019-03-25T03:56:12.672Z,1008.25
2019-03-25T03:57:03.060Z,1008.25
2019-03-25T03:58:02.183Z,1008.15
2019-03-25T03:59:02.061Z,1008.18
2019-03-25T04:00:02.065Z,1008.17
2019-03-25T04:01:02.017Z,1008.13
2019-03-25T04:02:02.000Z,1008.17
2019-03-25T04:03:01.993Z,1008.11
2019-03-25T04:04:01.997Z,1008.15
2019-03-25T04:05:01.991Z,1008.10
2019-03-25T04:06:01.961Z,1008.08
2019-03-25T04:07:01.952Z,1008.09
2019-03-25T04:08:01.945Z,1008.10
2019-03-25T04:09:02.013Z,1008.08
2019-03-25T04:10:01.957Z,1008.06
2019-03-25T04:11:01.901Z,1008.06
2019-03-25T04:12:01.903Z,1008.00
2019-03-25T04:13:01.879Z,1007.97
2019-03-25T04:14:01.894Z,1007.92
2019-03-25T04:15:01.899Z,1007.95
2019-03-25T04:16:01.903Z,1007.90
2019-03-25T04:17:01.835Z,1007.86
2019-03-25T04:18:01.834Z,1007.85
2019-03-25T04:19:01.828Z,1007.81
2019-03-25T04:20:01.811Z,1007.82
2019-03-25T04:21:01.817Z,1007.83
2019-03-25T04:22:01.791Z,1007.76
2019-03-25T04:23:01.786Z,1007.70
2019-03-25T04:24:02.172Z,1007.73
2019-03-25T04:25:01.753Z,1007.68
2019-03-25T04:26:01.774Z,1007.63
2019-03-25T04:27:01.741Z,1007.62
2019-03-25T04:28:01.751Z,1007.56
2019-03-25T04:29:01.718Z,1007.52
2019-03-25T04:30:01.716Z,1007.54
2019-03-25T04:31:01.690Z,1007.54
2019-03-25T04:32:01.684Z,1007.60
2019-03-25T04:33:01.671Z,1007.53
2019-03-25T04:34:01.651Z,1007.52
2019-03-25T04:35:01.669Z,1007.60
2019-03-25T04:36:01.631Z,1007.53
2019-03-25T04:37:01.653Z,1007.51
2019-03-25T04:38:01.616Z,1007.49
2019-03-25T04:39:01.607Z,1007.40
2019-03-25T04:40:01.596Z,1007.41
2019-03-25T04:41:01.581Z,1007.38
2019-03-25T04:42:01.570Z,1007.39
2019-03-25T04:43:01.576Z,1007.31
2019-03-25T04:44:01.546Z,1007.36
2019-03-25T04:45:01.586Z,1007.37
2019-03-25T04:46:01.535Z,1007.31
2019-03-25T04:47:01.518Z,1007.29
2019-03-25T04:48:01.539Z,1007.29
2019-03-25T04:49:01.495Z,1007.24
2019-03-25T04:50:01.492Z,1007.20
2019-03-25T04:51:01.476Z,1007.21
2019-03-25T04:52:01.464Z,1007.26
2019-03-25T04:53:01.456Z,1007.21
2019-03-25T04:54:01.469Z,1007.26
2019-03-25T04:55:01.429Z,1007.23
2019-03-25T04:56:01.422Z,1007.17
2019-03-25T04:57:01.405Z,1007.19
2019-03-25T04:58:01.405Z,1007.20
2019-03-25T04:59:01.426Z,1007.15
2019-03-25T05:00:01.426Z,1007.10
2019-03-25T05:01:01.368Z,1007.11
2019-03-25T05:02:01.355Z,1007.12
2019-03-25T05:03:01.341Z,1007.09
2019-03-25T05:04:01.339Z,1007.06
2019-03-25T05:05:01.350Z,1007.12
2019-03-25T05:06:01.311Z,1007.10
2019-03-25T05:07:01.304Z,1007.02
2019-03-25T05:08:01.287Z,1007.04
2019-03-25T05:09:01.304Z,1007.02
2019-03-25T05:10:01.311Z,1006.99
2019-03-25T05:11:03.721Z,1007.00
2019-03-25T05:12:01.256Z,1007.01
2019-03-25T05:13:01.245Z,1006.94
2019-03-25T05:14:01.222Z,1006.93
2019-03-25T05:15:01.251Z,1006.98
2019-03-25T05:16:01.210Z,1006.90
2019-03-25T05:17:01.223Z,1006.83
2019-03-25T05:18:01.190Z,1006.92
2019-03-25T05:19:01.185Z,1006.76
2019-03-25T05:20:01.159Z,1006.70
2019-03-25T05:21:01.171Z,1006.74
2019-03-25T05:22:01.146Z,1006.74
2019-03-25T05:23:01.135Z,1006.72
2019-03-25T05:24:01.122Z,1006.74
2019-03-25T05:25:01.115Z,1006.80
2019-03-25T05:26:01.123Z,1006.71
2019-03-25T05:27:01.107Z,1006.69
2019-03-25T05:28:01.080Z,1006.64
2019-03-25T05:29:01.066Z,1006.62
2019-03-25T05:30:01.063Z,1006.65
2019-03-25T05:31:01.051Z,1006.68
2019-03-25T05:32:01.064Z,1006.62
2019-03-25T05:33:01.029Z,1006.66
2019-03-25T05:34:01.013Z,1006.62
2019-03-25T05:35:01.000Z,1006.62
2019-03-25T05:36:00.996Z,1006.62
2019-03-25T05:37:01.009Z,1006.61
2019-03-25T05:38:00.991Z,1006.57
2019-03-25T05:39:00.960Z,1006.59
2019-03-25T05:40:00.953Z,1006.51
2019-03-25T05:41:00.937Z,1006.53
2019-03-25T05:42:00.933Z,1006.48
2019-03-25T05:43:00.956Z,1006.54
2019-03-25T05:44:00.912Z,1006.52
2019-03-25T05:45:00.899Z,1006.51
2019-03-25T05:46:00.892Z,1006.48
2019-03-25T05:47:00.876Z,1006.51
2019-03-25T05:48:00.896Z,1006.47
2019-03-25T05:49:00.852Z,1006.53
2019-03-25T05:50:00.853Z,1006.54
2019-03-25T05:51:00.842Z,1006.56
2019-03-25T05:52:00.828Z,1006.59
2019-03-25T05:53:00.824Z,1006.59
2019-03-25T05:54:00.833Z,1006.64
2019-03-25T05:55:00.793Z,1006.60
2019-03-25T05:56:00.799Z,1006.53
2019-03-25T05:57:02.650Z,1006.64
2019-03-25T05:58:00.759Z,1006.61
2019-03-25T05:59:00.770Z,1006.68
2019-03-25T06:00:00.808Z,1006.67
2019-03-25T06:01:00.772Z,1006.54
2019-03-25T06:02:00.800Z,1006.54
2019-03-25T06:03:01.608Z,1006.50
2019-03-25T06:04:00.728Z,1006.45
2019-03-25T06:05:00.708Z,1006.49
2019-03-25T06:06:00.673Z,1006.42
2019-03-25T06:07:00.661Z,1006.40
2019-03-25T06:08:00.660Z,1006.36
2019-03-25T06:09:00.651Z,1006.31
2019-03-25T06:10:00.663Z,1006.28
2019-03-25T06:11:00.629Z,1006.35
2019-03-25T06:12:00.610Z,1006.32
2019-03-25T06:13:01.162Z,1006.35
2019-03-25T06:14:00.613Z,1006.38
2019-03-25T06:15:00.626Z,1006.37
2019-03-25T06:16:00.574Z,1006.35
2019-03-25T06:17:00.576Z,1006.39
2019-03-25T06:18:03.145Z,1006.44
2019-03-25T06:19:00.555Z,1006.42
2019-03-25T06:20:00.524Z,1006.46
2019-03-25T06:21:00.534Z,1006.45
2019-03-25T06:22:00.510Z,1006.46
2019-03-25T06:23:00.512Z,1006.49
2019-03-25T06:24:00.505Z,1006.45
2019-03-25T06:25:00.473Z,1006.49
2019-03-25T06:26:00.468Z,1006.46
2019-03-25T06:27:00.490Z,1006.49
2019-03-25T06:28:00.449Z,1006.54
2019-03-25T06:29:00.433Z,1006.57
2019-03-25T06:30:00.417Z,1006.48
2019-03-25T06:31:00.428Z,1006.52
2019-03-25T06:32:00.416Z,1006.50
2019-03-25T06:33:11.715Z,1006.55
2019-03-25T06:34:01.393Z,1006.54
2019-03-25T06:35:00.414Z,1006.54
2019-03-25T06:36:00.363Z,1006.54
2019-03-25T06:37:00.374Z,1006.63
2019-03-25T06:38:00.334Z,1006.57
2019-03-25T06:39:00.320Z,1006.60
2019-03-25T06:40:00.434Z,1006.57
2019-03-25T06:41:00.314Z,1006.59
2019-03-25T06:42:00.468Z,1006.62
2019-03-25T06:43:00.355Z,1006.63
2019-03-25T06:44:00.291Z,1006.59
2019-03-25T06:45:00.422Z,1006.65
2019-03-25T06:46:00.254Z,1006.61
2019-03-25T06:47:00.254Z,1006.61
2019-03-25T06:48:00.260Z,1006.63
2019-03-25T06:49:00.220Z,1006.62
2019-03-25T06:50:00.418Z,1006.65
2019-03-25T06:51:00.197Z,1006.62
2019-03-25T06:52:00.182Z,1006.58
2019-03-25T06:53:00.170Z,1006.61
2019-03-25T06:54:00.194Z,1006.62
2019-03-25T06:55:00.461Z,1006.60
2019-03-25T06:56:00.195Z,1006.61
2019-03-25T06:57:00.129Z,1006.62
2019-03-25T06:58:00.127Z,1006.69
2019-03-25T06:59:00.128Z,1006.68
2019-03-25T07:00:00.326Z,1006.69
2019-03-25T07:01:00.093Z,1006.72
2019-03-25T07:02:00.080Z,1006.73
2019-03-25T07:03:00.066Z,1006.71
2019-03-25T07:04:00.053Z,1006.71
2019-03-25T07:05:00.065Z,1006.74
2019-03-25T07:06:00.061Z,1006.73
2019-03-25T07:07:00.026Z,1006.71
2019-03-25T07:08:00.037Z,1006.76
2019-03-25T07:09:00.009Z,1006.76
2019-03-25T07:10:00.013Z,1006.78
2019-03-25T07:10:59.978Z,1006.74
2019-03-25T07:11:59.975Z,1006.74
2019-03-25T07:12:59.964Z,1006.76
2019-03-25T07:13:59.950Z,1006.72
2019-03-25T07:14:59.970Z,1006.72
2019-03-25T07:15:59.927Z,1006.68
2019-03-25T07:16:59.976Z,1006.64
2019-03-25T07:17:59.927Z,1006.69
2019-03-25T07:18:59.897Z,1006.69
2019-03-25T07:19:59.887Z,1006.64
2019-03-25T07:21:07.970Z,1006.66
2019-03-25T07:21:59.866Z,1006.69
2019-03-25T07:22:59.857Z,1006.74
2019-03-25T07:23:59.879Z,1006.74
2019-03-25T07:24:59.836Z,1006.70
2019-03-25T07:25:59.839Z,1006.76
2019-03-25T07:26:59.804Z,1006.74
2019-03-25T07:27:59.806Z,1006.71
2019-03-25T07:28:59.815Z,1006.71
2019-03-25T07:29:59.823Z,1006.70
2019-03-25T07:30:59.800Z,1006.71
2019-03-25T07:31:59.753Z,1006.66
2019-03-25T07:32:59.746Z,1006.68
2019-03-25T07:33:59.734Z,1006.72
2019-03-25T07:34:59.723Z,1006.74
2019-03-25T07:35:59.720Z,1006.76
2019-03-25T07:36:59.739Z,1006.74
2019-03-25T07:37:59.730Z,1006.82
2019-03-25T07:39:00.260Z,1006.76
2019-03-25T07:39:59.667Z,1006.83
2019-03-25T07:40:59.656Z,1006.80
2019-03-25T07:41:59.656Z,1006.77
2019-03-25T07:42:59.665Z,1006.75
2019-03-25T07:43:59.621Z,1006.78
2019-03-25T07:44:59.613Z,1006.80
2019-03-25T07:45:59.604Z,1006.74
2019-03-25T07:46:59.595Z,1006.81
2019-03-25T07:47:59.640Z,1006.83
2019-03-25T07:48:59.573Z,1006.81
2019-03-25T07:49:59.565Z,1006.83
2019-03-25T07:50:59.558Z,1006.80
2019-03-25T07:51:59.537Z,1006.87
2019-03-25T07:52:59.527Z,1006.77
2019-03-25T07:53:59.539Z,1006.73
2019-03-25T07:54:59.505Z,1006.92
2019-03-25T07:55:59.499Z,1006.81
2019-03-25T07:57:08.233Z,1006.82
2019-03-25T07:57:59.497Z,1006.76
2019-03-25T07:59:07.563Z,1006.84
2019-03-25T08:00:13.407Z,1006.89
2019-03-25T08:02:10.247Z,1006.82
2019-03-25T08:03:10.233Z,1006.94
2019-03-25T08:04:10.240Z,1006.95
2019-03-25T08:05:10.270Z,1006.94
2019-03-25T08:06:10.213Z,1006.95
2019-03-25T08:07:10.206Z,1006.92
2019-03-25T08:08:10.170Z,1006.96
2019-03-25T08:09:10.194Z,1006.85
2019-03-25T08:10:10.211Z,1006.88
2019-03-25T08:11:10.171Z,1006.85
2019-03-25T08:12:10.136Z,1006.88
2019-03-25T08:13:10.211Z,1006.87
2019-03-25T08:14:10.103Z,1006.93
2019-03-25T08:15:10.148Z,1006.84
2019-03-25T08:16:10.101Z,1006.91
2019-03-25T08:17:10.076Z,1006.86
2019-03-25T08:18:10.066Z,1006.89
2019-03-25T08:19:10.054Z,1006.91
2019-03-25T08:20:10.040Z,1006.86
2019-03-25T08:21:10.059Z,1006.87
2019-03-25T08:22:10.024Z,1006.93
2019-03-25T08:23:10.013Z,1006.87
2019-03-25T08:24:10.057Z,1006.92
2019-03-25T08:25:09.990Z,1006.91
2019-03-25T08:26:10.004Z,1006.91
2019-03-25T08:27:09.965Z,1007.02
2019-03-25T08:28:09.961Z,1006.98
2019-03-25T08:29:09.949Z,1006.90
2019-03-25T08:30:09.939Z,1006.96
2019-03-25T08:31:09.938Z,1006.95
2019-03-25T08:32:09.951Z,1006.95
2019-03-25T08:33:09.902Z,1007.05
2019-03-25T08:34:09.909Z,1007.05
2019-03-25T08:35:09.881Z,1007.08
2019-03-25T08:36:09.897Z,1006.98
2019-03-25T08:37:09.865Z,1007.00
2019-03-25T08:38:09.872Z,1006.98
2019-03-25T08:39:09.837Z,1007.05
2019-03-25T08:40:09.831Z,1007.05
2019-03-25T08:41:09.829Z,1007.07
2019-03-25T08:42:09.809Z,1007.06
2019-03-25T08:43:09.823Z,1007.09
2019-03-25T08:44:09.783Z,1007.03
2019-03-25T08:45:09.772Z,1007.14
2019-03-25T08:46:09.760Z,1007.08
2019-03-25T08:47:09.776Z,1007.11
2019-03-25T08:48:09.786Z,1007.08
2019-03-25T08:49:11.946Z,1007.13
2019-03-25T08:50:09.724Z,1007.11
2019-03-25T08:51:09.715Z,1007.14
2019-03-25T08:52:09.696Z,1007.16
2019-03-25T08:53:09.712Z,1007.16
2019-03-25T08:54:09.680Z,1007.17
2019-03-25T08:55:09.670Z,1007.20
2019-03-25T08:56:09.687Z,1007.18
2019-03-25T08:57:09.646Z,1007.14
2019-03-25T08:58:12.342Z,1007.21
2019-03-25T08:59:09.620Z,1007.20
2019-03-25T09:00:09.624Z,1007.25
2019-03-25T09:01:09.652Z,1007.21
2019-03-25T09:02:09.591Z,1007.22
2019-03-25T09:03:09.579Z,1007.23
2019-03-25T09:04:09.586Z,1007.27
2019-03-25T09:05:09.579Z,1007.21
2019-03-25T09:06:09.543Z,1007.25
2019-03-25T09:07:09.541Z,1007.25
2019-03-25T09:08:09.528Z,1007.30
2019-03-25T09:09:09.555Z,1007.31
2019-03-25T09:10:09.500Z,1007.29
2019-03-25T09:11:09.493Z,1007.27
2019-03-25T09:12:09.494Z,1007.27
2019-03-25T09:13:09.475Z,1007.28
2019-03-25T09:14:09.462Z,1007.28
2019-03-25T09:15:09.479Z,1007.36
2019-03-25T09:16:09.437Z,1007.33
2019-03-25T09:17:09.425Z,1007.32
2019-03-25T09:18:09.451Z,1007.36
2019-03-25T09:19:09.457Z,1007.35
2019-03-25T09:20:09.396Z,1007.38
2019-03-25T09:21:09.385Z,1007.42
2019-03-25T09:22:09.374Z,1007.43
2019-03-25T09:23:09.387Z,1007.45
2019-03-25T09:24:09.348Z,1007.40
2019-03-25T09:25:09.357Z,1007.41
2019-03-25T09:26:09.331Z,1007.40
2019-03-25T09:27:09.318Z,1007.44
2019-03-25T09:28:09.303Z,1007.42
2019-03-25T09:29:09.300Z,1007.45
2019-03-25T09:30:09.306Z,1007.43
2019-03-25T09:31:09.271Z,1007.45
2019-03-25T09:32:09.271Z,1007.45
2019-03-25T09:33:09.257Z,1007.45
2019-03-25T09:34:09.268Z,1007.47
2019-03-25T09:35:09.273Z,1007.46
2019-03-25T09:36:09.250Z,1007.51
2019-03-25T09:37:09.210Z,1007.43
2019-03-25T09:38:09.195Z,1007.45
2019-03-25T09:39:09.185Z,1007.47
2019-03-25T09:40:09.182Z,1007.49
2019-03-25T09:41:09.169Z,1007.48
2019-03-25T09:42:09.175Z,1007.54
2019-03-25T09:43:09.169Z,1007.53
2019-03-25T09:44:09.136Z,1007.56
2019-03-25T09:45:09.128Z,1007.46
2019-03-25T09:46:09.122Z,1007.51
2019-03-25T09:47:09.133Z,1007.42
2019-03-25T09:48:09.094Z,1007.51
2019-03-25T09:49:09.086Z,1007.52
2019-03-25T09:50:09.065Z,1007.50
2019-03-25T09:51:09.057Z,1007.46
2019-03-25T09:52:09.086Z,1007.56
2019-03-25T09:53:09.040Z,1007.49
2019-03-25T09:54:09.034Z,1007.52
2019-03-25T09:55:09.948Z,1007.53
2019-03-25T09:56:09.013Z,1007.48
2019-03-25T09:57:09.000Z,1007.50
2019-03-25T09:58:09.012Z,1007.51
2019-03-25T09:59:17.983Z,1007.56
2019-03-25T10:00:09.015Z,1007.54
2019-03-25T10:01:08.950Z,1007.51
2019-03-25T10:02:08.982Z,1007.48
2019-03-25T10:03:08.943Z,1007.55
2019-03-25T10:04:08.921Z,1007.60
2019-03-25T10:05:17.509Z,1007.57
2019-03-25T10:06:08.895Z,1007.60
2019-03-25T10:07:08.883Z,1007.55
2019-03-25T10:08:08.901Z,1007.59
2019-03-25T10:09:08.873Z,1007.67
2019-03-25T10:10:08.850Z,1007.64
2019-03-25T10:11:08.842Z,1007.57
2019-03-25T10:12:08.857Z,1007.65
2019-03-25T10:13:08.827Z,1007.63
2019-03-25T10:14:08.814Z,1007.70
2019-03-25T10:15:08.806Z,1007.68
2019-03-25T10:16:08.786Z,1007.61
2019-03-25T10:17:08.860Z,1007.75
2019-03-25T10:18:08.775Z,1007.74
2019-03-25T10:19:10.248Z,1007.80
2019-03-25T10:20:08.747Z,1007.70
2019-03-25T10:21:08.740Z,1007.72
2019-03-25T10:22:08.733Z,1007.76
2019-03-25T10:23:08.742Z,1007.76
2019-03-25T10:24:08.709Z,1007.80
2019-03-25T10:25:08.686Z,1007.79
2019-03-25T10:26:08.682Z,1007.90
2019-03-25T10:27:08.705Z,1008.02
2019-03-25T10:28:08.679Z,1007.95
2019-03-25T10:29:08.650Z,1007.99
2019-03-25T10:30:08.632Z,1007.95
2019-03-25T10:31:08.629Z,1007.94
2019-03-25T10:32:08.621Z,1008.02
2019-03-25T10:33:08.628Z,1007.95
2019-03-25T10:34:08.594Z,1007.95
2019-03-25T10:35:08.588Z,1007.94
2019-03-25T10:36:08.568Z,1007.90
2019-03-25T10:37:08.564Z,1007.91
2019-03-25T10:38:19.122Z,1007.89
2019-03-25T10:39:09.556Z,1007.94
2019-03-25T10:40:08.530Z,1007.96
2019-03-25T10:41:08.523Z,1007.90
2019-03-25T10:42:08.505Z,1007.96
2019-03-25T10:43:08.537Z,1007.85
2019-03-25T10:44:08.488Z,1007.86
2019-03-25T10:45:08.482Z,1007.84
2019-03-25T10:46:08.469Z,1007.93
2019-03-25T10:47:08.457Z,1007.91
2019-03-25T10:48:08.442Z,1007.92
2019-03-25T10:49:08.449Z,1007.86
2019-03-25T10:50:08.419Z,1007.88
2019-03-25T10:51:08.406Z,1007.87
2019-03-25T10:52:08.404Z,1007.93
2019-03-25T10:53:08.395Z,1007.88
2019-03-25T10:54:08.412Z,1007.89
2019-03-25T10:55:08.373Z,1007.86
2019-03-25T10:56:08.355Z,1007.82
2019-03-25T10:57:08.347Z,1007.84
2019-03-25T10:58:08.338Z,1007.88
2019-03-25T10:59:08.341Z,1007.87
2019-03-25T11:00:08.352Z,1007.86
2019-03-25T11:01:09.578Z,1007.84
2019-03-25T11:02:08.292Z,1007.79
2019-03-25T11:03:08.283Z,1007.82
2019-03-25T11:04:08.273Z,1007.79
2019-03-25T11:05:08.262Z,1007.84
2019-03-25T11:06:08.315Z,1007.87
2019-03-25T11:07:08.278Z,1007.97
2019-03-25T11:08:08.224Z,1007.93
2019-03-25T11:09:08.212Z,1007.86
2019-03-25T11:10:08.225Z,1007.94
2019-03-25T11:11:08.214Z,1008.01
2019-03-25T11:12:08.183Z,1007.86
2019-03-25T11:13:08.204Z,1008.04
2019-03-25T11:14:08.164Z,1007.98
2019-03-25T11:15:08.150Z,1008.03
2019-03-25T11:16:10.228Z,1007.96
2019-03-25T11:17:08.138Z,1007.92
2019-03-25T11:18:08.140Z,1007.91
2019-03-25T11:19:08.134Z,1007.96
2019-03-25T11:20:08.095Z,1007.98
2019-03-25T11:21:08.103Z,1007.94
2019-03-25T11:22:08.074Z,1007.97
2019-03-25T11:23:08.061Z,1007.89
2019-03-25T11:24:08.064Z,1008.05
2019-03-25T11:25:08.044Z,1008.03
2019-03-25T11:26:08.054Z,1007.99
2019-03-25T11:27:08.025Z,1008.08
2019-03-25T11:28:08.007Z,1008.03
2019-03-25T11:29:08.670Z,1007.90
2019-03-25T11:30:07.994Z,1008.05
2019-03-25T11:31:08.007Z,1007.99
2019-03-25T11:32:07.987Z,1008.14
2019-03-25T11:33:07.951Z,1007.99
2019-03-25T11:34:07.954Z,1008.05
2019-03-25T11:35:07.927Z,1008.07
2019-03-25T11:36:07.960Z,1008.05
2019-03-25T11:37:07.914Z,1008.04
2019-03-25T11:38:07.905Z,1008.03
2019-03-25T11:39:07.897Z,1007.97
2019-03-25T11:40:07.878Z,1008.00
2019-03-25T11:41:07.885Z,1007.98
2019-03-25T11:42:10.167Z,1008.06
2019-03-25T11:43:07.841Z,1007.99
2019-03-25T11:44:07.845Z,1008.03
2019-03-25T11:45:07.827Z,1008.04
2019-03-25T11:46:07.841Z,1008.04
2019-03-25T11:47:07.804Z,1007.96
2019-03-25T11:48:07.812Z,1008.04
2019-03-25T11:49:07.780Z,1008.05
2019-03-25T11:50:07.773Z,1008.11
2019-03-25T11:51:07.771Z,1007.96
2019-03-25T11:52:07.764Z,1007.93
2019-03-25T11:53:07.748Z,1007.96
2019-03-25T11:54:07.734Z,1007.96
2019-03-25T11:55:07.717Z,1007.93
2019-03-25T11:56:07.707Z,1007.87
2019-03-25T11:57:07.722Z,1007.81
2019-03-25T11:58:07.687Z,1007.85
2019-03-25T11:59:07.703Z,1007.83
2019-03-25T12:00:07.657Z,1007.83
2019-03-25T12:01:07.648Z,1007.77
2019-03-25T12:02:17.073Z,1007.83
2019-03-25T12:03:08.630Z,1007.73
2019-03-25T12:04:07.621Z,1007.70
2019-03-25T12:05:07.632Z,1007.70
2019-03-25T12:06:07.592Z,1007.70